Data for 12/01/2006

Time Sea-Level Adjusted Pressure Absolute Pressure Temperature Relative Humidity Dew Point   
(mb) (inHg) (mb) (inHg) (C) (F) (%) (C) (F)
00:05 1019 30.09 848 25.04 -3.8 25.1 69 -8.8 16.2
00:10 1019 30.09 848 25.04 -3.8 25.1 68 -9 15.9
00:15 1019 30.09 848 25.04 -3.8 25.1 67 -9.1 15.6
00:20 1019 30.09 848 25.04 -3.9 25 67 -9.1 15.7
00:25 1018 30.06 848 25.04 -3.9 25 67 -9.2 15.4
00:30 1019 30.09 848 25.04 -3.9 25 65 -9.5 15
00:35 1019 30.09 848 25.04 -3.8 25.1 65 -9.5 15
00:40 1019 30.09 848 25.04 -3.9 25 66 -9.3 15.3
00:45 1019 30.09 848 25.04 -3.9 24.9 66 -9.3 15.2
00:50 1019 30.09 848 25.04 -3.9 25 66 -9.4 15.1
00:55 1019 30.09 848 25.04 -3.9 24.9 66 -9.4 15.1
01:00 1019 30.09 848 25.04 -4 24.8 65 -9.6 14.8
01:05 1019 30.09 848 25.04 -4.1 24.6 64 -9.9 14.2
01:10 1019 30.09 848 25.04 -4.2 24.4 63 -10.2 13.7
01:15 1019 30.09 848 25.04 -4.2 24.4 63 -10.3 13.4
01:20 1019 30.09 848 25.04 -4.2 24.5 61 -10.6 13
01:25 1019 30.09 848 25.04 -4.1 24.6 60 -10.9 12.4
01:30 1019 30.09 848 25.04 -4.1 24.6 60 -10.7 12.8
01:35 1019 30.09 848 25.04 -4.2 24.4 62 -10.5 13.1
01:40 1019 30.09 848 25.04 -4.3 24.2 61 -10.7 12.7
01:45 1019 30.09 848 25.04 -4.4 24.1 62 -10.6 13
01:50 1019 30.09 848 25.04 -4.4 24 61 -10.9 12.3
01:55 1019 30.09 848 25.04 -4.5 24 62 -10.7 12.7
02:00 1019 30.09 848 25.04 -4.5 23.9 62 -10.8 12.6
02:05 1019 30.09 848 25.04 -4.5 23.9 62 -10.8 12.5
02:10 1019 30.09 848 25.04 -4.5 23.8 61 -10.9 12.4
02:15 1019 30.09 848 25.04 -4.4 24.1 59 -11.2 11.9
02:20 1019 30.09 848 25.04 -4.2 24.4 59 -11.1 12
02:25 1019 30.09 848 25.04 -4.3 24.3 61 -10.8 12.5
02:30 1019 30.09 848 25.04 -4.4 24.1 61 -10.7 12.7
02:35 1019 30.09 848 25.04 -4.5 23.9 62 -10.7 12.8
02:40 1019 30.09 848 25.04 -4.7 23.6 64 -10.5 13.1
02:45 1019 30.09 848 25.04 -5 22.9 65 -10.6 13
02:50 1019 30.09 849 25.07 -5 23 66 -10.5 13.1
02:55 1019 30.09 849 25.07 -4.9 23.1 66 -10.4 13.3
03:00 1019 30.09 849 25.07 -4.9 23.1 64 -10.7 12.8
03:05 1019 30.09 849 25.07 -4.9 23.2 63 -10.8 12.6
03:10 1019 30.09 849 25.07 -4.8 23.3 62 -11 12.2
03:15 1019 30.09 849 25.07 -4.6 23.6 61 -11.1 12.1
03:20 1019 30.09 848 25.04 -4.6 23.8 61 -11 12.1
03:25 1019 30.09 848 25.04 -4.5 24 59 -11.4 11.5
03:30 1019 30.09 848 25.04 -4.5 23.8 59 -11.3 11.7
03:35 1019 30.09 848 25.04 -4.6 23.6 59 -11.4 11.4
03:40 1019 30.09 848 25.04 -4.7 23.6 60 -11.3 11.7
03:45 1019 30.09 849 25.07 -4.7 23.6 59 -11.5 11.3
03:50 1019 30.09 849 25.07 -4.8 23.4 61 -11.1 12.1
03:55 1019 30.09 849 25.07 -4.9 23.1 63 -10.9 12.4
04:00 1019 30.09 849 25.07 -5.2 22.7 64 -11 12.2
04:05 1019 30.09 849 25.07 -5.3 22.4 63 -11.3 11.7
04:10 1019 30.09 848 25.04 -5.2 22.6 60 -11.8 10.8
04:15 1019 30.09 848 25.04 -5 22.9 59 -11.8 10.7
04:20 1019 30.09 848 25.04 -4.9 23.1 58 -11.9 10.6
04:25 1019 30.09 848 25.04 -4.9 23.2 58 -11.9 10.7
04:30 1019 30.09 848 25.04 -5 23 60 -11.7 11
04:35 1019 30.09 848 25.04 -5 23.1 60 -11.5 11.3
04:40 1019 30.09 848 25.04 -5 23 60 -11.6 11.1
04:45 1019 30.09 848 25.04 -5 23 61 -11.5 11.3
04:50 1019 30.09 848 25.04 -5.1 22.8 62 -11.2 11.8
04:55 1019 30.09 848 25.04 -5.2 22.7 62 -11.4 11.5
05:00 1019 30.09 848 25.04 -5 22.9 62 -11.2 11.8
05:05 1019 30.09 848 25.04 -5 23 63 -10.9 12.3
05:10 1019 30.09 848 25.04 -5 23 64 -10.7 12.7
05:15 1019 30.09 848 25.04 -5.1 22.9 65 -10.6 12.9
05:20 1019 30.09 848 25.04 -5.3 22.5 66 -10.7 12.8
05:25 1019 30.09 848 25.04 -5.3 22.4 66 -10.6 12.9
05:30 1019 30.09 848 25.04 -5.3 22.5 69 -10.1 13.8
05:35 1019 30.09 849 25.07 -5.3 22.4 73 -9.5 14.9
05:40 1019 30.09 849 25.07 -5.4 22.3 76 -8.9 15.9
05:45 1020 30.12 849 25.07 -5.4 22.4 78 -8.6 16.6
05:50 1020 30.12 849 25.07 -5.4 22.3 79 -8.4 16.8
05:55 1020 30.12 849 25.07 -5.4 22.2 80 -8.4 16.9
06:00 1020 30.12 849 25.07 -5.5 22.2 80 -8.4 16.8
06:05 1020 30.12 849 25.07 -5.5 22 80 -8.5 16.7
06:10 1020 30.12 849 25.07 -5.6 21.9 79 -8.7 16.4
06:15 1020 30.12 849 25.07 -5.6 21.9 79 -8.7 16.3
06:20 1020 30.12 849 25.07 -5.7 21.7 79 -8.8 16.1
06:25 1020 30.12 849 25.07 -5.9 21.4 78 -9.1 15.7
06:30 1020 30.12 849 25.07 -5.9 21.3 78 -9.2 15.5
06:35 1020 30.12 849 25.07 -5.9 21.4 77 -9.3 15.2
06:40 1020 30.12 849 25.07 -5.8 21.6 76 -9.4 15.1
06:45 1020 30.12 849 25.07 -5.8 21.5 76 -9.4 15.2
06:50 1020 30.12 849 25.07 -5.9 21.4 76 -9.4 15.1
06:55 1020 30.12 849 25.07 -6.1 21 81 -8.9 16
07:00 1020 30.12 849 25.07 -6.4 20.4 84 -8.6 16.4
07:05 1020 30.12 849 25.07 -6.7 20 88 -8.4 16.9
07:10 1020 30.12 849 25.07 -6.6 20.1 88 -8.4 17
07:15 1020 30.12 849 25.07 -6.5 20.2 86 -8.5 16.7
07:20 1020 30.12 849 25.07 -6.7 19.9 84 -8.9 15.9
07:25 1020 30.12 849 25.07 -6.9 19.6 76 -10.4 13.3
07:30 1020 30.12 849 25.07 -7 19.4 74 -10.9 12.4
07:35 1020 30.12 849 25.07 -6.8 19.7 72 -11.1 12
07:40 1020 30.12 849 25.07 -6.4 20.4 70 -11 12.2
07:45 1020 30.12 849 25.07 -6.1 21 67 -11.3 11.7
07:50 1020 30.12 849 25.07 -6 21.2 66 -11.3 11.6
07:55 1020 30.12 849 25.07 -5.9 21.4 66 -11.3 11.6
08:00 1020 30.12 849 25.07 -5.8 21.5 64 -11.6 11.1
08:05 1020 30.12 849 25.07 -5.7 21.7 63 -11.7 11
08:10 1020 30.12 849 25.07 -5.7 21.8 64 -11.5 11.2
08:15 1020 30.12 849 25.07 -5.5 22 64 -11.4 11.5
08:20 1020 30.12 849 25.07 -5.6 21.8 64 -11.3 11.6
08:25 1020 30.12 849 25.07 -5.6 22 65 -11.1 12
08:30 1020 30.12 849 25.07 -5.4 22.3 65 -10.9 12.4
08:35 1020 30.12 849 25.07 -5.1 22.8 62 -11.4 11.5
08:40 1020 30.12 849 25.07 -4.4 24 58 -11.5 11.3
08:45 1020 30.12 849 25.07 -4.2 24.4 57 -11.5 11.3
08:50 1020 30.12 849 25.07 -4.1 24.6 57 -11.3 11.6
08:55 1020 30.12 849 25.07 -4.2 24.5 57 -11.4 11.4
09:00 1020 30.12 849 25.07 -4.1 24.6 57 -11.4 11.4
09:05 1020 30.12 849 25.07 -4.1 24.7 57 -11.3 11.7
09:10 1020 30.12 849 25.07 -4 24.9 56 -11.5 11.3
09:15 1020 30.12 849 25.07 -3.8 25.1 56 -11.3 11.7
09:20 1020 30.12 849 25.07 -3.9 25 57 -11.1 12
09:25 1020 30.12 849 25.07 -3.9 24.9 59 -10.9 12.4
09:30 1020 30.12 849 25.07 -3.9 25.1 57 -11.2 11.8
09:35 1020 30.12 849 25.07 -3.7 25.3 55 -11.6 11.2
09:40 1020 30.12 849 25.07 -3.6 25.5 56 -11.3 11.7
09:45 1020 30.12 849 25.07 -3.5 25.6 57 -11 12.2
09:50 1020 30.12 849 25.07 -3.4 25.8 53 -11.7 10.9
09:55 1020 30.12 849 25.07 -3.3 26 53 -11.6 11.1
10:00 1020 30.12 849 25.07 -3.2 26.3 50 -12.3 9.9
10:05 1020 30.12 849 25.07 -3.1 26.5 50 -12 10.4
10:10 1020 30.12 849 25.07 -3 26.6 50 -12.1 10.3
10:15 1020 30.12 849 25.07 -3 26.6 51 -11.7 10.9
10:20 1020 30.12 849 25.07 -3 26.6 50 -12 10.4
10:25 1020 30.12 849 25.07 -3 26.6 50 -12 10.5
10:30 1020 30.12 849 25.07 -3 26.5 51 -11.7 10.9
10:35 1020 30.12 849 25.07 -3 26.6 50 -12 10.5
10:40 1020 30.12 849 25.07 -3 26.6 50 -12 10.4
10:45 1020 30.12 849 25.07 -2.9 26.7 48 -12.4 9.6
10:50 1020 30.12 849 25.07 -2.8 26.9 50 -11.8 10.7
10:55 1020 30.12 849 25.07 -2.6 27.3 49 -12 10.4
11:00 1020 30.12 849 25.07 -2.6 27.4 49 -11.9 10.5
11:05 1020 30.12 849 25.07 -2.6 27.3 49 -12 10.4
11:10 1020 30.12 849 25.07 -2.6 27.3 47 -12.4 9.6
11:15 1020 30.12 849 25.07 -2.4 27.7 48 -11.9 10.6
11:20 1020 30.12 849 25.07 -2.4 27.8 47 -12.1 10.2
11:25 1020 30.12 849 25.07 -2.3 27.8 47 -12.1 10.2
11:30 1020 30.12 849 25.07 -2.3 27.9 48 -12 10.4
11:35 1020 30.12 849 25.07 -2.2 28.1 48 -11.7 10.9
11:40 1020 30.12 849 25.07 -2.1 28.3 47 -11.8 10.7
11:45 1020 30.12 849 25.07 -2.1 28.2 47 -11.9 10.6
11:50 1020 30.12 849 25.07 -2.1 28.2 48 -11.9 10.7
11:55 1020 30.12 849 25.07 -2.2 28 47 -12.2 10.1
12:00 1020 30.12 849 25.07 -2.1 28.2 47 -11.9 10.5
12:05 1020 30.12 849 25.07 -2.3 27.9 50 -11.4 11.5
12:10 1020 30.12 849 25.07 -2.3 27.9 49 -11.6 11.2
12:15 1020 30.12 849 25.07 -2.3 27.9 48 -11.8 10.8
12:20 1020 30.12 849 25.07 -2.3 27.9 47 -12.1 10.3
12:25 1020 30.12 849 25.07 -2.2 28 48 -11.7 10.9
12:30 1020 30.12 849 25.07 -2.2 28 49 -11.5 11.4
12:35 1020 30.12 849 25.07 -2.2 28.1 49 -11.5 11.3
12:40 1020 30.12 849 25.07 -2.2 28.1 49 -11.6 11.1
12:45 1020 30.12 849 25.07 -2.3 27.9 49 -11.5 11.3
12:50 1020 30.12 849 25.07 -2.2 28 50 -11.2 11.8
12:55 1020 30.12 849 25.07 -2.3 27.9 51 -11.2 11.9
13:00 1020 30.12 849 25.07 -2.3 27.9 50 -11.3 11.7
13:05 1020 30.12 849 25.07 -2.3 27.8 50 -11.3 11.6
13:10 1020 30.12 849 25.07 -2.2 28 51 -11.1 12
13:15 1020 30.12 849 25.07 -2.2 28.1 50 -11.1 11.9
13:20 1020 30.12 849 25.07 -2.3 27.9 50 -11.5 11.4
13:25 1020 30.12 849 25.07 -2.3 27.9 51 -11.2 11.8
13:30 1020 30.12 849 25.07 -2.3 27.8 51 -11.1 12
13:35 1020 30.12 849 25.07 -2.6 27.3 57 -10 14.1
13:40 1020 30.12 849 25.07 -2.7 27.1 53 -11 12.2
13:45 1020 30.12 849 25.07 -2.6 27.4 52 -11.1 12.1
13:50 1020 30.12 850 25.1 -2.5 27.5 53 -10.8 12.5
13:55 1020 30.12 850 25.1 -2.6 27.4 55 -10.4 13.2
14:00 1020 30.12 850 25.1 -2.8 27 58 -9.8 14.3
14:05 1021 30.15 850 25.1 -3 26.5 64 -8.9 16
14:10 1021 30.15 850 25.1 -3.4 26 63 -9.4 15.1
14:15 1021 30.15 850 25.1 -3.3 26.1 66 -8.8 16.1
14:20 1021 30.15 850 25.1 -3.3 26 68 -8.4 16.8
14:25 1021 30.15 850 25.1 -3.2 26.2 68 -8.3 17
14:30 1021 30.15 850 25.1 -3.2 26.3 71 -7.8 18
14:35 1021 30.15 850 25.1 -3.1 26.4 70 -7.9 17.8
14:40 1021 30.15 850 25.1 -3.1 26.5 70 -7.8 18
14:45 1021 30.15 850 25.1 -2.9 26.7 70 -7.7 18.1
14:50 1021 30.15 850 25.1 -3.1 26.4 72 -7.5 18.5
14:55 1021 30.15 850 25.1 -3.3 26 72 -7.7 18.2
15:00 1021 30.15 850 25.1 -3.3 26.1 72 -7.7 18.2
15:05 1021 30.15 850 25.1 -3.3 26.1 71 -7.8 17.9
15:10 1021 30.15 850 25.1 -3.2 26.2 70 -7.9 17.8
15:15 1021 30.15 850 25.1 -3 26.5 68 -8.2 17.3
15:20 1021 30.15 851 25.13 -3.1 26.5 68 -8.3 17.1
15:25 1021 30.15 851 25.13 -3.1 26.3 68 -8.2 17.2
15:30 1021 30.15 851 25.13 -3.1 26.3 68 -8.2 17.2
15:35 1021 30.15 851 25.13 -3.2 26.3 68 -8.2 17.3
15:40 1021 30.15 851 25.13 -3.3 26 69 -8.2 17.3
15:45 1021 30.15 851 25.13 -3.4 25.9 70 -8.1 17.4
15:50 1022 30.18 851 25.13 -3.5 25.7 69 -8.4 16.9
15:55 1022 30.18 851 25.13 -3.6 25.6 68 -8.6 16.6
16:00 1022 30.18 851 25.13 -3.5 25.6 69 -8.3 17
16:05 1022 30.18 851 25.13 -3.7 25.4 70 -8.3 17.1
16:10 1022 30.18 851 25.13 -3.8 25.2 70 -8.4 16.9
16:15 1022 30.18 851 25.13 -3.9 25 70 -8.6 16.5
16:20 1022 30.18 851 25.13 -3.9 24.9 69 -8.8 16.1
16:25 1022 30.18 851 25.13 -3.9 24.9 70 -8.7 16.4
16:30 1022 30.18 851 25.13 -3.9 25 71 -8.4 16.9
16:35 1022 30.18 851 25.13 -4 24.7 72 -8.4 16.9
16:40 1022 30.18 852 25.16 -4.2 24.5 73 -8.3 17.1
16:45 1022 30.18 852 25.16 -4.3 24.3 74 -8.3 17.1
16:50 1023 30.21 852 25.16 -4.4 24.1 76 -8.1 17.5
16:55 1023 30.21 852 25.16 -4.5 23.9 77 -7.9 17.8
17:00 1023 30.21 852 25.16 -4.7 23.6 78 -7.9 17.8
17:05 1023 30.21 852 25.16 -4.8 23.3 80 -7.8 17.9
17:10 1023 30.21 852 25.16 -5 22.9 81 -7.9 17.9
17:15 1023 30.21 852 25.16 -5.1 22.9 81 -7.9 17.8
17:20 1023 30.21 852 25.16 -5 23 80 -7.9 17.8
17:25 1023 30.21 852 25.16 -5 23 80 -8 17.6
17:30 1023 30.21 852 25.16 -5 23 80 -8 17.7
17:35 1023 30.21 852 25.16 -5 23 80 -8 17.7
17:40 1023 30.21 852 25.16 -5 23 80 -7.9 17.7
17:45 1023 30.21 853 25.19 -5.1 22.8 81 -7.9 17.8
17:50 1023 30.21 853 25.19 -5.2 22.6 82 -7.9 17.8
17:55 1024 30.24 853 25.19 -5.3 22.5 82 -7.9 17.7
18:00 1024 30.24 853 25.19 -5.3 22.5 82 -7.8 17.9
18:05 1024 30.24 853 25.19 -5.4 22.4 80 -8.3 17
18:10 1024 30.24 853 25.19 -5.5 22.1 80 -8.4 16.9
18:15 1024 30.24 853 25.19 -5.6 21.9 81 -8.4 16.9
18:20 1024 30.24 853 25.19 -5.7 21.8 79 -8.7 16.4
18:25 1024 30.24 853 25.19 -5.7 21.7 80 -8.6 16.5
18:30 1024 30.24 853 25.19 -5.9 21.4 82 -8.5 16.7
18:35 1024 30.24 853 25.19 -6 21.2 83 -8.4 16.9
18:40 1024 30.24 853 25.19 -6.1 21 84 -8.5 16.8
18:45 1024 30.24 853 25.19 -6.4 20.5 85 -8.6 16.6
18:50 1024 30.24 853 25.19 -6.7 19.9 85 -8.8 16.2
18:55 1024 30.24 853 25.19 -6.9 19.6 86 -8.9 16
19:00 1024 30.24 853 25.19 -6.9 19.6 85 -9 15.8
19:05 1024 30.24 853 25.19 -6.8 19.8 84 -9 15.8
19:10 1024 30.24 854 25.22 -6.9 19.5 84 -9.2 15.5
19:15 1024 30.24 854 25.22 -7.1 19.3 86 -9.1 15.6
19:20 1024 30.24 854 25.22 -7.2 19 85 -9.3 15.3
19:25 1025 30.27 854 25.22 -7.3 18.9 86 -9.2 15.4
19:30 1025 30.27 854 25.22 -7.3 18.8 87 -9.1 15.6
19:35 1025 30.27 854 25.22 -7.3 18.9 86 -9.3 15.2
19:40 1025 30.27 854 25.22 -7.3 18.9 85 -9.3 15.2
19:45 1025 30.27 854 25.22 -7.3 18.8 85 -9.4 15.1
19:50 1025 30.27 854 25.22 -7.4 18.7 86 -9.4 15.1
19:55 1025 30.27 854 25.22 -7.4 18.7 85 -9.5 14.9
20:00 1025 30.27 854 25.22 -7.5 18.5 86 -9.5 14.9
20:05 1025 30.27 854 25.22 -7.5 18.4 86 -9.6 14.8
20:10 1025 30.27 854 25.22 -7.6 18.3 85 -9.7 14.6
20:15 1025 30.27 855 25.25 -7.9 17.8 86 -9.8 14.3
20:20 1026 30.3 855 25.25 -8.1 17.4 86 -10.1 13.9
20:25 1026 30.3 855 25.25 -8.1 17.3 85 -10.2 13.6
20:30 1026 30.3 855 25.25 -8.2 17.2 86 -10.1 13.8
20:35 1026 30.3 855 25.25 -8.1 17.5 84 -10.3 13.4
20:40 1026 30.3 855 25.25 -8 17.5 84 -10.3 13.5
20:45 1026 30.3 855 25.25 -7.9 17.8 82 -10.4 13.3
20:50 1026 30.3 855 25.25 -7.9 17.8 83 -10.3 13.4
20:55 1026 30.3 855 25.25 -7.9 17.7 84 -10.2 13.6
21:00 1026 30.3 855 25.25 -8 17.6 84 -10.2 13.6
21:05 1026 30.3 855 25.25 -8.1 17.4 84 -10.3 13.4
21:10 1026 30.3 855 25.25 -8.3 17.1 86 -10.3 13.5
21:15 1026 30.3 855 25.25 -8.3 17 85 -10.4 13.2
21:20 1026 30.3 855 25.25 -8.4 16.9 85 -10.5 13.1
21:25 1026 30.3 855 25.25 -8.6 16.5 87 -10.4 13.2
21:30 1026 30.3 855 25.25 -8.6 16.5 88 -10.3 13.5
21:35 1026 30.3 856 25.28 -8.6 16.6 87 -10.3 13.5
21:40 1026 30.3 856 25.28 -8.6 16.5 88 -10.3 13.5
21:45 1026 30.3 856 25.28 -8.6 16.6 89 -10.1 13.8
21:50 1026 30.3 856 25.28 -8.4 16.9 89 -9.9 14.1
21:55 1026 30.3 856 25.28 -8.2 17.3 88 -9.8 14.3
22:00 1026 30.3 856 25.28 -8.1 17.4 88 -9.7 14.5
22:05 1027 30.33 856 25.28 -8.1 17.4 88 -9.7 14.5
22:10 1027 30.33 856 25.28 -8.2 17.3 89 -9.8 14.4
22:15 1027 30.33 856 25.28 -8.2 17.3 88 -9.9 14.2
22:20 1027 30.33 856 25.28 -8.2 17.2 88 -10 14.1
22:25 1027 30.33 856 25.28 -8.3 17 87 -10.1 13.8
22:30 1027 30.33 856 25.28 -8.4 16.9 87 -10.2 13.6
22:35 1027 30.33 856 25.28 -8.4 16.8 86 -10.3 13.4
22:40 1027 30.33 856 25.28 -8.5 16.8 87 -10.3 13.5
22:45 1027 30.33 856 25.28 -8.5 16.7 87 -10.3 13.5
22:50 1027 30.33 856 25.28 -8.5 16.7 88 -10.2 13.6
22:55 1027 30.33 856 25.28 -8.6 16.6 88 -10.3 13.5
23:00 1027 30.33 856 25.28 -8.6 16.6 88 -10.2 13.6
23:05 1027 30.33 856 25.28 -8.6 16.5 87 -10.4 13.4
23:10 1027 30.33 856 25.28 -8.7 16.3 86 -10.6 12.9
23:15 1027 30.33 856 25.28 -8.8 16.3 87 -10.6 13
23:20 1027 30.33 856 25.28 -8.7 16.3 87 -10.5 13
23:25 1027 30.33 856 25.28 -8.6 16.4 87 -10.4 13.2
23:30 1027 30.33 857 25.31 -8.7 16.3 87 -10.5 13
23:35 1027 30.33 857 25.31 -8.9 16.1 88 -10.5 13.1
23:40 1027 30.33 857 25.31 -8.8 16.1 87 -10.6 13
23:45 1027 30.33 857 25.31 -8.8 16.2 85 -10.8 12.6
23:50 1027 30.33 857 25.31 -8.7 16.3 85 -10.8 12.5
23:55 1028 30.36 857 25.31 -8.8 16.3 85 -10.9 12.4
24:00 1028 30.36 857 25.31 -8.7 16.3 84 -11 12.3